Flight Track Log - Related Links

Times and Time Zones

All times are in EDT time to prevent confusion due to time zone crossing. See the NKS231 flight status page for this flight to view local times or setup timezone preferences in your user account.


Time Position Orientation Groundspeed Altitude Reporting Facility
EDT Latitude Longitude Course Direction KTS MPH feet Rate Location/Type
Thu 06:54:38 AM 33.6333 -84.3833 90° East 171 197 2,500  Level Atlanta TRACON
Thu 06:55:32 AM 33.6333 -84.3333 129° Southeast 212 244 3,700 2,000 Climbing Atlanta TRACON
Thu 06:56:32 AM 33.6000 -84.2833 168° South 276 318 6,300 3,105 Climbing Atlanta TRACON
Thu 06:57:26 AM 33.5333 -84.2667 193° South 271 312 9,600 2,430 Climbing Atlanta TRACON
Thu 06:59:52 AM 33.3222 -84.3272 193° South 329 379 14,400 2,126 Climbing Atlanta Center
Thu 07:00:52 AM 33.2281 -84.3542 193° South 348 400 16,900 2,100 Climbing Atlanta Center
Thu 07:01:52 AM 33.1281 -84.3811 192° South 362 417 18,600 1,850 Climbing Atlanta Center
Thu 07:02:52 AM 33.0214 -84.4081 187° South 377 434 20,600 1,850 Climbing Atlanta Center
Thu 07:03:52 AM 32.9003 -84.4247 179° South 393 452 22,300 1,600 Climbing Atlanta Center
Thu 07:04:52 AM 32.7833 -84.4217 179° South 398 458 23,800 1,650 Climbing Atlanta Center
Thu 07:05:52 AM 32.6686 -84.4189 179° South 411 473 25,600 1,500 Climbing Atlanta Center
Thu 07:06:52 AM 32.5475 -84.4158 180° South 421 484 26,800 1,150 Climbing Atlanta Center
Thu 07:07:52 AM 32.4222 -84.4153 179° South 432 497 27,900 1,050 Climbing Atlanta Center
Thu 07:08:52 AM 32.2969 -84.4122 178° South 444 511 28,900 1,040 Climbing Atlanta Center
Thu 07:10:45 AM 32.0636 -84.4050 179° South 493 567 30,900 1,353 Climbing Jacksonville Center
Thu 07:11:45 AM 31.9383 -84.4031 178° South 486 559 32,800 1,350 Climbing Jacksonville Center
Thu 07:12:45 AM 31.8111 -84.3986 180° South 464 534 33,600 900 Climbing Jacksonville Center
Thu 07:13:45 AM 31.6817 -84.3989 178° South 459 528 34,600 1,250 Climbing Jacksonville Center
Thu 07:14:45 AM 31.5564 -84.3944 179° South 459 528 36,100 1,100 Climbing Jacksonville Center
Thu 07:15:45 AM 31.4331 -84.3925 164° South 454 522 36,800 450 Climbing Jacksonville Center
Thu 07:16:45 AM 31.3147 -84.3517 154° Southeast 446 513 37,000 100 Climbing Jacksonville Center
Thu 07:17:45 AM 31.1986 -84.2842 154° Southeast 456 525 37,000  Level Jacksonville Center
Thu 07:18:45 AM 31.0822 -84.2169 155° Southeast 456 525 37,000  Level Jacksonville Center
Thu 07:19:45 AM 30.9661 -84.1525 153° Southeast 462 532 37,000  Level Jacksonville Center
Thu 07:20:45 AM 30.8519 -84.0856 155° Southeast 462 532 37,000  Level Jacksonville Center
Thu 07:21:45 AM 30.7356 -84.0236 153° Southeast 462 532 37,000  Level Jacksonville Center
Thu 07:22:45 AM 30.6211 -83.9572 154° Southeast 462 532 37,000 -50 Level Jacksonville Center
Thu 07:23:45 AM 30.5089 -83.8931 156° South 457 526 36,900 -50 Descending Jacksonville Center
Thu 07:24:45 AM 30.3925 -83.8317 155° Southeast 457 526 36,900  Level Jacksonville Center
Thu 07:25:45 AM 30.2761 -83.7681 153° Southeast 463 533 36,900 50 Level Jacksonville Center
Thu 07:26:45 AM 30.1594 -83.6997 155° Southeast 463 533 37,000 50 Climbing Jacksonville Center
Thu 07:27:45 AM 30.0408 -83.6364 155° Southeast 463 533 37,000 -50 Level Jacksonville Center
Thu 07:28:45 AM 29.9244 -83.5733 154° Southeast 463 533 36,900 -38 Descending Jacksonville Center
Thu 07:30:21 AM 29.7369 -83.4689 155° Southeast 463 533 36,900  Level Jacksonville Center
Thu 07:31:22 AM 29.6203 -83.4061 154° Southeast 463 533 36,900  Level Jacksonville Center
Thu 07:32:21 AM 29.4892 -83.3339 155° Southeast 468 539 36,900 50 Level Jacksonville Center
Thu 07:33:21 AM 29.3725 -83.2714 154° Southeast 468 539 37,000  Climbing Jacksonville Center
Thu 07:34:21 AM 29.2536 -83.2044 155° Southeast 468 539 36,900 -50 Descending Jacksonville Center
Thu 07:35:21 AM 29.1347 -83.1422 154° Southeast 462 532 36,900  Level Jacksonville Center
Thu 07:36:21 AM 29.0158 -83.0756 155° Southeast 462 532 36,900 50 Level Jacksonville Center
Thu 07:37:21 AM 28.8950 -83.0111 154° Southeast 462 532 37,000  Climbing Jacksonville Center
Thu 07:38:22 AM 28.7781 -82.9469 156° South 462 532 36,900 -50 Descending Jacksonville Center
Thu 07:39:21 AM 28.6653 -82.8903 154° Southeast 462 532 36,900  Level Jacksonville Center
Thu 07:40:21 AM 28.5486 -82.8264 155° Southeast 462 532 36,900  Level Jacksonville Center
Thu 07:41:21 AM 28.4317 -82.7650 155° Southeast 462 532 36,900  Level Jacksonville Center
Thu 07:42:21 AM 28.3106 -82.7017 154° Southeast 462 532 36,900  Level Jacksonville Center
Thu 07:43:21 AM 28.1956 -82.6383 155° Southeast 462 532 36,900 50 Level Jacksonville Center
Thu 07:44:21 AM 28.0869 -82.5797 154° Southeast 468 539 37,000  Climbing Jacksonville Center
Thu 07:45:01 AM 27.9989 -82.5303 161° South 470 541 36,900 -60 Descending Miami Center
Thu 07:46:01 AM 27.8858 -82.4872 161° South 463 533 36,900 50 Level Miami Center
Thu 07:47:01 AM 27.7644 -82.4389 153° Southeast 463 533 37,000 50 Climbing Miami Center
Thu 07:48:01 AM 27.6381 -82.3672 149° Southeast 463 533 37,000  Level Miami Center
Thu 07:49:01 AM 27.5261 -82.2917 148° Southeast 468 539 37,000 -150 Level Miami Center
Thu 07:50:01 AM 27.4244 -82.2214 148° Southeast 477 549 36,700 -650 Descending Miami Center
Thu 07:51:01 AM 27.3083 -82.1411 149° Southeast 482 555 35,700 -1,000 Descending Miami Center
Thu 07:52:01 AM 27.1842 -82.0583 149° Southeast 482 555 34,700 -1,000 Descending Miami Center
Thu 07:53:01 AM 27.0639 -81.9761 136° Southeast 487 560 33,700 -900 Descending Miami Center
Thu 07:54:01 AM 26.9611 -81.8667 138° Southeast 499 574 32,900 -750 Descending Miami Center
Thu 07:55:01 AM 26.8603 -81.7647 136° Southeast 499 574 32,200 -2,050 Descending Miami Center
Thu 07:56:01 AM 26.7594 -81.6558 135° Southeast 499 574 28,800 -3,650 Descending Miami Center
Thu 07:57:01 AM 26.6689 -81.5544 139° Southeast 477 549 24,900 -3,600 Descending Miami Center
Thu 07:58:01 AM 26.5758 -81.4625 136° Southeast 456 525 21,600 -3,400 Descending Miami Center
Thu 07:59:01 AM 26.5031 -81.3831 137° Southeast 423 487 18,100 -3,400 Descending Miami Center
Thu 08:00:01 AM 26.4122 -81.2892 136° Southeast 410 472 14,800 -2,800 Descending Miami Center
Thu 08:01:01 AM 26.3414 -81.2125 138° Southeast 383 441 12,500 -2,050 Descending Miami Center
Thu 08:02:01 AM 26.2683 -81.1381 138° Southeast 367 422 10,700 -1,300 Descending Miami Center
Thu 08:03:01 AM 26.2014 -81.0708 134° Southeast 344 396 9,900 -950 Descending Miami Center
Thu 08:04:01 AM 26.1467 -81.0086 105° East 315 362 8,800 -1,250 Descending Miami Center
Thu 08:05:01 AM 26.1261 -80.9247 105° East 270 311 7,400 -1,400 Descending Miami Center
Thu 08:06:01 AM 26.1075 -80.8453 105° East 264 304 6,000 -750 Descending Miami Center
Thu 08:07:01 AM 26.0886 -80.7661 98° East 264 304 5,900 -50 Descending Miami Center
Thu 08:08:01 AM 26.0783 -80.6872 90° East 264 304 5,900  Level Miami Center
Thu 08:09:01 AM 26.0783 -80.6061 92° East 259 298 5,900  Level Miami Center
Thu 08:10:01 AM 26.0758 -80.5367 90° East 239 275 5,900 -350 Level Miami Center
Thu 08:11:01 AM 26.0756 -80.4697 90° East 226 260 5,200 -1,054 Descending Miami Center
Thu 08:12:29 AM 26.0758 -80.3681 91° East 224 258 3,300 -1,161 Descending Miami Center
Thu 08:13:36 AM 26.0753 -80.3008 91° East 182 209 2,200 -844 Descending Miami Center
Thu 08:14:37 AM 26.0744 -80.2522 88° East 150 173 1,500 -724 Descending Miami Center
Thu 08:15:32 AM 26.0753 -80.2175 88° East 127 146 800 -764 Descending Miami Center

Login

Don't have an account? Register now (free) for customized features, flight alerts, and more!